Time;durP1;ratioP1;P1;durP2;ratioP2;P2;SDS_P1;SDS_P2;PMS_P1;PMS_P2;Temp;Humidity;BMP_temperature;BMP_pressure;BME280_temperature;BME280_humidity;BME280_pressure;Samples;Min_cycle;Max_cycle;Signal;HPM_P1;HPM_P2
2022/06/28 00:00:54;;;;;;;7.35;4.00;;;;;;;26.21;44.77;99824.91;4468793;32;34602;-78
2022/06/28 00:03:21;;;;;;;7.40;4.00;;;;;;;26.23;44.65;99825.44;4468503;32;33152;-78
2022/06/28 00:05:49;;;;;;;7.10;4.20;;;;;;;26.27;44.57;99842.53;4455570;32;33782;-78
2022/06/28 00:08:17;;;;;;;6.55;3.62;;;;;;;26.23;44.67;99844.28;4442775;32;33000;-78
2022/06/28 00:10:44;;;;;;;7.85;4.10;;;;;;;26.21;44.65;99843.78;4468253;32;34544;-78
2022/06/28 00:13:12;;;;;;;7.62;3.80;;;;;;;26.14;45.06;99846.97;4442776;32;31781;-79
2022/06/28 00:18:26;;;;;;;7.65;3.67;;;;;;;26.12;45.10;99842.81;4455162;32;33067;-78
2022/06/28 00:20:57;;;;;;;7.07;3.47;;;;;;;26.10;44.89;99833.84;4455703;32;34731;-78
2022/06/28 00:23:24;;;;;;;6.45;3.70;;;;;;;26.07;44.97;99837.25;4467727;32;32755;-78
2022/06/28 00:25:52;;;;;;;11.30;3.55;;;;;;;26.10;44.89;99833.84;4468217;32;33732;-78
2022/06/28 00:28:20;;;;;;;6.20;4.10;;;;;;;26.01;45.13;99827.25;4468076;32;35292;-78
2022/06/28 00:30:47;;;;;;;7.60;3.83;;;;;;;26.01;45.11;99824.44;4468070;32;34139;-78
2022/06/28 00:33:16;;;;;;;5.10;3.67;;;;;;;25.97;45.27;99826.22;4468107;32;34054;-79
2022/06/28 00:35:43;;;;;;;7.85;3.62;;;;;;;25.83;45.68;99826.16;4455007;32;33752;-78
2022/06/28 00:38:12;;;;;;;7.55;4.00;;;;;;;25.92;45.40;99827.13;4468223;32;35040;-78
2022/06/28 00:40:45;;;;;;;8.75;3.62;;;;;;;25.82;45.71;99835.75;4455108;32;33312;-79
2022/06/28 00:43:14;;;;;;;6.40;3.80;;;;;;;25.78;46.01;99837.50;4467628;32;33204;-78
2022/06/28 00:45:43;;;;;;;6.57;3.90;;;;;;;25.71;46.08;99828.63;4467703;32;33792;-78
2022/06/28 00:48:17;;;;;;;14.73;3.97;;;;;;;25.73;45.98;99832.78;4468718;32;34683;-79
2022/06/28 00:50:46;;;;;;;8.02;3.60;;;;;;;25.71;46.07;99843.50;4457235;32;32305;-78
2022/06/28 00:53:15;;;;;;;6.57;4.07;;;;;;;25.70;45.84;99836.22;4457224;32;31718;-78
2022/06/28 00:55:44;;;;;;;7.78;3.90;;;;;;;25.68;46.08;99840.47;4456941;32;32325;-78
2022/06/28 00:58:13;;;;;;;5.95;4.10;;;;;;;25.72;46.02;99839.56;4457138;32;34948;-78
2022/06/28 01:00:46;;;;;;;5.93;3.80;;;;;;;25.67;46.11;99836.81;4469959;32;33877;-78
2022/06/28 01:03:17;;;;;;;8.20;3.58;;;;;;;25.67;46.24;99841.59;4470122;32;34175;-78
2022/06/28 01:05:45;;;;;;;6.53;3.67;;;;;;;25.61;46.40;99849.25;4457291;32;35218;-78
2022/06/28 01:08:14;;;;;;;5.95;3.83;;;;;;;25.56;46.49;99857.75;4457472;32;35134;-78
2022/06/28 01:10:43;;;;;;;5.95;3.62;;;;;;;25.53;46.51;99855.56;4457363;32;34673;-78
2022/06/28 01:13:22;;;;;;;6.65;3.87;;;;;;;25.60;46.33;99861.63;4470029;32;33243;-78
2022/06/28 01:15:51;;;;;;;5.57;3.50;;;;;;;25.57;46.37;99857.47;4469856;32;33761;-78
2022/06/28 01:18:18;;;;;;;7.37;3.70;;;;;;;25.46;46.55;99861.56;4456515;32;35421;-78
2022/06/28 01:20:48;;;;;;;5.82;3.42;;;;;;;25.32;46.98;99851.41;4456999;32;34068;-78
2022/06/28 01:23:19;;;;;;;6.60;3.92;;;;;;;25.42;46.75;99845.59;4457406;32;33270;-78
2022/06/28 01:25:47;;;;;;;6.47;4.00;;;;;;;25.37;46.92;99854.09;4457135;32;33690;-78
2022/06/28 01:28:16;;;;;;;7.05;3.72;;;;;;;25.37;47.09;99851.28;4457332;32;33883;-78
2022/06/28 01:30:44;;;;;;;8.55;3.70;;;;;;;25.23;47.51;99859.66;4444292;32;32661;-78
2022/06/28 01:33:13;;;;;;;8.75;4.12;;;;;;;25.30;47.40;99859.28;4469833;32;32827;-78
2022/06/28 01:35:40;;;;;;;7.50;4.07;;;;;;;25.36;47.23;99847.66;4444174;32;33340;-78
2022/06/28 01:38:12;;;;;;;6.65;3.87;;;;;;;25.31;47.32;99849.72;4457428;32;34449;-78
2022/06/28 01:40:44;;;;;;;9.95;4.55;;;;;;;25.24;47.30;99839.69;4444043;32;32657;-78
2022/06/28 01:43:13;;;;;;;5.55;3.80;;;;;;;25.30;47.14;99836.81;4469735;32;33828;-78
2022/06/28 01:45:41;;;;;;;7.62;4.28;;;;;;;25.21;47.46;99833.84;4469428;32;33661;-78
2022/06/28 01:48:08;;;;;;;6.85;4.45;;;;;;;25.22;47.67;99835.50;4456184;32;33713;-78
2022/06/28 01:50:37;;;;;;;10.00;4.03;;;;;;;25.13;48.09;99843.78;4444091;32;33194;-78
2022/06/28 01:53:05;;;;;;;6.28;4.28;;;;;;;25.08;48.14;99849.47;4469395;32;31749;-78
2022/06/28 01:55:34;;;;;;;5.97;3.92;;;;;;;25.09;47.99;99847.47;4443804;32;32522;-78
2022/06/28 01:58:03;;;;;;;10.98;3.90;;;;;;;25.21;47.65;99859.97;4456663;32;34503;-78
2022/06/28 02:00:31;;;;;;;7.80;3.70;;;;;;;25.10;47.84;99863.19;4469582;32;34810;-78
2022/06/28 02:03:00;;;;;;;6.80;3.83;;;;;;;25.05;47.97;99863.25;4469790;32;33916;-78
2022/06/28 02:05:29;;;;;;;6.50;3.92;;;;;;;25.00;47.87;99863.31;4456570;32;33184;-78
2022/06/28 02:07:57;;;;;;;6.62;3.67;;;;;;;24.98;48.02;99860.81;4469557;32;34251;-78
2022/06/28 02:10:26;;;;;;;10.65;4.32;;;;;;;24.92;48.40;99871.25;4469708;32;34447;-78
2022/06/28 02:12:54;;;;;;;6.43;4.00;;;;;;;24.88;48.86;99869.34;4469242;32;33220;-78
2022/06/28 02:15:22;;;;;;;7.85;4.00;;;;;;;25.02;48.63;99869.47;4468974;32;34872;-78
2022/06/28 02:17:58;;;;;;;8.10;4.00;;;;;;;24.86;49.28;99868.78;4469726;32;34525;-78
2022/06/28 02:20:25;;;;;;;6.75;4.05;;;;;;;24.84;49.25;99873.88;4469250;32;33966;-78
2022/06/28 02:22:54;;;;;;;6.57;4.07;;;;;;;24.86;49.26;99858.41;4456772;32;33534;-78
2022/06/28 02:25:21;;;;;;;7.80;4.12;;;;;;;24.95;49.13;99851.00;4469190;32;33975;-78
2022/06/28 02:27:51;;;;;;;6.28;4.35;;;;;;;24.83;49.60;99855.34;4469533;32;34304;-78
2022/06/28 02:30:21;;;;;;;6.62;4.62;;;;;;;24.84;49.62;99851.41;4457039;32;34869;-78
2022/06/28 02:32:49;;;;;;;6.43;4.00;;;;;;;24.89;49.30;99855.00;4456929;32;33927;-78
2022/06/28 02:40:49;;;;;;;8.60;4.05;;;;;;;24.91;48.33;99874.34;4458469;32;32425;-78
2022/06/28 02:43:17;;;;;;;8.25;4.43;;;;;;;24.86;48.70;99888.44;4456399;32;33449;-78
2022/06/28 02:45:46;;;;;;;8.82;4.62;;;;;;;24.76;49.10;99880.13;4443560;32;33254;-78
2022/06/28 02:48:14;;;;;;;9.95;4.10;;;;;;;24.86;48.82;99883.66;4469337;32;35323;-78
2022/06/28 02:50:44;;;;;;;7.22;4.53;;;;;;;24.85;48.87;99881.16;4469192;32;34236;-78
2022/06/28 02:53:11;;;;;;;6.30;4.18;;;;;;;24.69;49.44;99877.72;4456324;32;32867;-78
2022/06/28 02:55:39;;;;;;;8.23;4.00;;;;;;;24.73;49.29;99870.34;4456355;32;33605;-78
2022/06/28 02:58:07;;;;;;;8.25;4.05;;;;;;;24.69;49.40;99869.28;4470298;32;34981;-78
2022/06/28 03:00:35;;;;;;;7.97;4.00;;;;;;;24.70;49.49;99872.94;4456254;32;34831;-78
2022/06/28 03:03:03;;;;;;;7.30;4.22;;;;;;;24.62;49.68;99866.84;4456252;32;31940;-78
2022/06/28 03:05:35;;;;;;;6.18;4.30;;;;;;;24.61;49.80;99870.78;4469295;32;34694;-78
2022/06/28 03:08:08;;;;;;;10.05;4.20;;;;;;;24.67;49.74;99867.91;4457206;32;34648;-78
2022/06/28 03:10:37;;;;;;;6.82;4.53;;;;;;;24.53;50.20;99864.97;4468383;32;34001;-78
2022/06/28 03:13:05;;;;;;;9.90;4.72;;;;;;;24.55;50.12;99866.34;4456481;32;33241;-78
2022/06/28 03:15:32;;;;;;;7.40;4.22;;;;;;;24.73;49.61;99867.53;4470234;32;34378;-78
2022/06/28 03:18:00;;;;;;;8.30;4.43;;;;;;;24.71;49.76;99864.19;4456123;32;33959;-78
2022/06/28 03:20:28;;;;;;;7.37;4.30;;;;;;;24.70;49.96;99872.94;4456469;32;33306;-78
2022/06/28 03:22:56;;;;;;;6.57;4.12;;;;;;;24.70;50.02;99875.75;4469298;32;33550;-78
2022/06/28 03:25:24;;;;;;;10.60;4.15;;;;;;;24.67;50.15;99877.19;4469685;32;33984;-77
2022/06/28 03:27:52;;;;;;;7.82;4.20;;;;;;;24.71;49.98;99891.44;4469382;32;34489;-76
2022/06/28 03:30:20;;;;;;;7.62;4.40;;;;;;;24.76;49.23;99899.78;4456782;32;33493;-78
2022/06/28 03:32:48;;;;;;;8.13;4.12;;;;;;;24.89;48.51;99905.53;4456181;32;33255;-77
2022/06/28 03:35:20;;;;;;;9.93;4.22;;;;;;;24.88;48.29;99925.50;4469224;32;33618;-77
2022/06/28 03:37:49;;;;;;;6.78;4.05;;;;;;;24.72;48.79;99938.84;4469127;32;34370;-78
2022/06/28 03:40:17;;;;;;;7.65;4.53;;;;;;;24.87;48.78;99952.72;4455727;32;33822;-78
2022/06/28 03:42:45;;;;;;;7.65;4.30;;;;;;;24.81;49.61;99955.87;4455988;32;32334;-78
2022/06/28 03:45:13;;;;;;;8.07;4.32;;;;;;;24.86;49.59;99956.66;4455776;32;33851;-78
2022/06/28 03:47:47;;;;;;;6.65;4.32;;;;;;;24.79;50.09;99963.75;4468681;32;34296;-78
2022/06/28 03:50:24;;;;;;;7.75;4.43;;;;;;;24.84;50.06;99980.56;4468328;32;33420;-78
2022/06/28 03:52:57;;;;;;;8.02;4.57;;;;;;;24.92;49.88;99988.34;4456287;32;34101;-78
2022/06/28 03:55:30;;;;;;;8.38;4.80;;;;;;;24.99;49.77;99997.28;4468759;32;34691;-78
2022/06/28 03:57:57;;;;;;;5.93;4.25;;;;;;;24.98;50.10;99995.63;4468539;32;34440;-78
2022/06/28 04:00:25;;;;;;;7.45;4.70;;;;;;;24.99;50.25;99994.47;4468202;32;35170;-78
2022/06/28 04:02:53;;;;;;;5.87;4.32;;;;;;;25.00;50.57;99989.69;4468410;32;33351;-78
2022/06/28 04:05:21;;;;;;;7.78;4.20;;;;;;;25.11;50.30;99985.66;4468376;32;34495;-78
2022/06/28 04:07:49;;;;;;;11.57;4.62;;;;;;;25.10;50.57;99986.78;4442693;32;32991;-78
2022/06/28 04:10:17;;;;;;;7.95;4.28;;;;;;;25.26;50.44;99986.31;4455913;32;34604;-78
2022/06/28 04:12:46;;;;;;;7.45;4.07;;;;;;;25.36;49.63;99981.69;4468726;32;34027;-78
2022/06/28 04:15:14;;;;;;;8.88;3.60;;;;;;;25.47;48.97;99995.31;4455161;32;34363;-78
2022/06/28 04:17:42;;;;;;;6.03;3.20;;;;;;;25.53;48.21;100002.53;4468431;32;34518;-79
2022/06/28 04:20:12;;;;;;;7.93;3.17;;;;;;;25.60;46.88;100002.19;4455621;32;33114;-79
2022/06/28 04:22:44;;;;;;;9.27;3.65;;;;;;;25.72;46.33;100005.44;4469623;32;34234;-79
2022/06/28 04:25:12;;;;;;;7.10;3.47;;;;;;;25.79;45.82;100008.72;4470013;32;33911;-79
2022/06/28 04:27:40;;;;;;;7.32;3.87;;;;;;;25.93;45.54;100012.44;4457509;32;34218;-79
2022/06/28 04:30:08;;;;;;;8.90;3.33;;;;;;;25.99;45.07;100004.78;4470452;32;34493;-79
2022/06/28 04:32:37;;;;;;;9.32;3.55;;;;;;;26.07;44.82;99994.78;4457282;32;31939;-79
2022/06/28 04:35:06;;;;;;;6.68;3.10;;;;;;;26.21;44.53;99992.87;4471474;32;33778;-76
2022/06/28 04:37:34;;;;;;;6.10;3.62;;;;;;;26.39;44.31;99999.69;4456904;32;34087;-76
2022/06/28 04:40:06;;;;;;;6.45;3.20;;;;;;;26.34;44.59;100014.66;4457347;32;33933;-76
2022/06/28 04:42:36;;;;;;;7.20;3.00;;;;;;;26.55;44.12;100038.53;4470264;32;33106;-79
2022/06/28 04:45:07;;;;;;;8.98;3.20;;;;;;;26.78;42.40;100041.50;4457624;32;34585;-76
2022/06/28 04:47:37;;;;;;;7.93;3.80;;;;;;;26.61;42.78;100041.28;4469772;32;34451;-76
2022/06/28 04:50:05;;;;;;;6.95;3.70;;;;;;;26.79;43.06;100068.53;4457310;32;33942;-76
2022/06/28 04:52:34;;;;;;;6.43;3.35;;;;;;;26.85;42.72;100070.13;4471001;32;34034;-79
2022/06/28 04:55:03;;;;;;;9.25;3.87;;;;;;;26.84;42.55;100068.44;4457406;32;33752;-79
2022/06/28 04:57:31;;;;;;;9.88;3.42;;;;;;;26.90;42.89;100078.50;4469811;32;33871;-79
2022/06/28 05:00:04;;;;;;;13.13;3.75;;;;;;;26.87;42.97;100071.50;4457667;32;34585;-78
2022/06/28 05:02:32;;;;;;;9.23;4.18;;;;;;;27.03;42.92;100080.56;4469279;32;33385;-78
2022/06/28 05:05:00;;;;;;;10.07;3.87;;;;;;;26.99;42.98;100081.47;4469319;32;34561;-77
2022/06/28 05:07:28;;;;;;;6.70;3.60;;;;;;;27.12;42.74;100058.97;4457071;32;32980;-78
2022/06/28 05:10:17;;;;;;;7.87;4.15;;;;;;;27.19;42.87;100053.78;4458977;32;32507;-78
2022/06/28 05:12:46;;;;;;;10.32;3.30;;;;;;;27.17;42.59;100072.13;4469741;32;33350;-78
2022/06/28 05:15:13;;;;;;;9.63;4.10;;;;;;;26.99;42.98;100093.56;4482300;32;32372;-78
2022/06/28 05:17:42;;;;;;;9.82;3.50;;;;;;;26.93;43.74;100083.50;4469708;32;35228;-76
2022/06/28 05:20:13;;;;;;;11.48;4.03;;;;;;;26.60;44.89;100108.00;4470757;32;33956;-75
2022/06/28 05:22:44;;;;;;;8.10;3.58;;;;;;;26.41;46.00;100108.00;4469520;32;33105;-77
2022/06/28 05:25:13;;;;;;;15.05;3.70;;;;;;;26.62;46.06;100102.06;4444418;32;33358;-76
2022/06/28 05:27:46;;;;;;;8.05;3.58;;;;;;;26.22;47.59;100107.94;4471128;32;35444;-77
2022/06/28 05:30:14;;;;;;;8.63;3.17;;;;;;;26.47;47.52;100098.34;4469658;32;34625;-77
2022/06/28 05:32:42;;;;;;;9.50;3.83;;;;;;;26.58;47.60;100097.03;4474963;32;33162;-76
2022/06/28 05:35:10;;;;;;;10.85;3.17;;;;;;;26.69;47.31;100082.78;4456271;32;32181;-77
2022/06/28 05:38:00;;;;;;;10.15;3.53;;;;;;;26.44;48.23;100075.59;4469954;32;35490;-76
2022/06/28 05:40:51;;;;;;;32.60;6.28;;;;;;;26.77;47.85;100087.72;4457168;32;33946;-77
2022/06/28 05:43:46;;;;;;;14.17;4.53;;;;;;;26.52;52.34;100055.19;4478770;32;33087;-77
2022/06/28 05:46:40;;;;;;;8.05;4.50;;;;;;;25.87;58.26;100033.34;4485021;32;33822;-79
2022/06/28 05:49:21;;;;;;;7.55;5.12;;;;;;;26.00;58.57;100023.28;4472829;32;32933;-79
2022/06/28 05:52:08;;;;;;;9.18;5.07;;;;;;;25.65;61.72;99984.44;4473127;32;32496;-79
2022/06/28 05:54:57;;;;;;;14.27;5.07;;;;;;;26.01;59.74;99953.81;4473115;32;34078;-80
2022/06/28 05:57:51;;;;;;;12.43;5.10;;;;;;;26.06;59.76;99971.44;4473594;32;33941;-79
2022/06/28 06:00:47;;;;;;;9.20;4.53;;;;;;;26.14;59.12;99987.66;4485346;32;35308;-78
2022/06/28 06:03:37;;;;;;;8.38;4.35;;;;;;;26.14;59.82;99979.19;4472905;32;34855;-78
2022/06/28 06:06:26;;;;;;;9.35;4.97;;;;;;;26.05;60.96;99966.12;4472905;32;31836;-78
2022/06/28 06:09:22;;;;;;;10.73;4.85;;;;;;;26.04;61.21;99965.28;4471858;32;33162;-76
2022/06/28 06:12:07;;;;;;;12.98;4.53;;;;;;;26.07;61.08;99961.03;4483262;32;34224;-75
2022/06/28 06:14:55;;;;;;;10.63;4.72;;;;;;;25.98;61.38;99960.06;4478586;32;33624;-76
2022/06/28 06:17:46;;;;;;;12.10;4.80;;;;;;;25.87;61.72;99931.28;4468694;32;33280;-76
2022/06/28 06:20:34;;;;;;;10.60;4.65;;;;;;;25.80;62.15;99923.22;4467453;32;33501;-76
2022/06/28 06:23:21;;;;;;;12.13;4.03;;;;;;;25.86;62.11;99918.34;4468862;32;34490;-76
2022/06/28 06:26:17;;;;;;;9.65;4.15;;;;;;;25.69;62.61;99899.19;4470234;32;34058;-77
2022/06/28 06:29:04;;;;;;;8.43;3.87;;;;;;;25.72;61.31;99982.94;4470375;32;34282;-77
2022/06/28 06:31:57;;;;;;;19.37;5.12;;;;;;;25.57;61.62;100017.66;4469360;32;34232;-76
2022/06/28 06:34:46;;;;;;;14.90;6.22;;;;;;;25.60;60.93;99982.50;4470469;32;34331;-77
2022/06/28 06:37:37;;;;;;;14.15;5.22;;;;;;;25.50;61.87;99966.59;4470559;32;33940;-76
2022/06/28 06:40:30;;;;;;;11.85;4.90;;;;;;;25.28;64.44;99957.91;4469298;32;34140;-76
2022/06/28 06:43:17;;;;;;;11.23;5.22;;;;;;;25.27;64.78;99914.94;4470152;32;33894;-76
2022/06/28 06:46:11;;;;;;;8.68;4.72;;;;;;;25.47;63.88;99915.78;4470317;32;34359;-76
2022/06/28 06:48:58;;;;;;;14.35;5.32;;;;;;;25.39;63.81;99970.69;4470194;32;34243;-76
2022/06/28 06:51:44;;;;;;;15.32;5.57;;;;;;;25.53;62.38;99982.88;4470273;32;33437;-76
2022/06/28 06:54:39;;;;;;;21.77;6.47;;;;;;;25.55;62.35;100003.06;4469231;32;32340;-75
2022/06/28 06:57:23;;;;;;;43.95;7.97;;;;;;;25.55;62.67;100034.00;4470398;32;34198;-76
2022/06/28 07:00:11;;;;;;;70.40;10.10;;;;;;;25.58;61.84;100007.25;4470210;32;34604;-77
2022/06/28 07:02:55;;;;;;;23.85;4.75;;;;;;;25.69;60.96;100016.44;4456007;32;32413;-76
2022/06/28 07:05:40;;;;;;;19.23;4.57;;;;;;;25.65;60.52;100007.78;4469216;32;34472;-77
2022/06/28 07:08:24;;;;;;;35.13;6.75;;;;;;;25.49;61.18;100006.25;4469865;32;35359;-76
2022/06/28 07:11:11;;;;;;;29.12;7.10;;;;;;;25.57;61.22;100006.44;4470156;32;34078;-76
2022/06/28 07:13:56;;;;;;;18.30;4.18;;;;;;;25.54;61.40;99989.31;4468980;32;34015;-76
2022/06/28 07:16:46;;;;;;;22.25;5.62;;;;;;;25.47;61.50;99980.41;4470422;32;33644;-77
2022/06/28 07:19:28;;;;;;;71.10;10.80;;;;;;;25.47;61.43;99972.00;4468985;32;34277;-76
2022/06/28 07:21:57;;;;;;;27.77;6.00;;;;;;;25.56;61.03;99971.03;4470020;32;34742;-76
2022/06/28 07:24:26;;;;;;;14.32;3.55;;;;;;;25.56;60.45;99967.38;4470135;32;33297;-76
2022/06/28 07:26:53;;;;;;;20.73;4.85;;;;;;;25.34;60.74;99958.69;4470210;32;33820;-75
2022/06/28 07:29:21;;;;;;;21.77;3.58;;;;;;;25.33;59.89;99949.44;4470033;32;34306;-76
2022/06/28 07:31:50;;;;;;;28.08;4.93;;;;;;;25.42;59.00;99941.16;4470137;32;33823;-73
2022/06/28 07:34:17;;;;;;;29.58;5.05;;;;;;;25.41;58.98;99929.06;4469990;32;34074;-76
2022/06/28 07:36:45;;;;;;;44.60;5.07;;;;;;;25.43;59.89;99940.00;4469876;32;33830;-76
2022/06/28 07:39:13;;;;;;;22.27;3.70;;;;;;;25.36;60.91;99950.78;4455863;32;35130;-76
2022/06/28 07:41:53;;;;;;;332.70;37.50;;;;;;;25.35;62.03;99946.31;4457021;32;33416;-76
2022/06/28 07:44:23;;;;;;;57.30;8.73;;;;;;;25.49;61.48;100000.63;4470209;32;33105;-76
2022/06/28 07:46:53;;;;;;;38.95;7.28;;;;;;;25.30;61.57;99982.91;4470264;32;33892;-76
2022/06/28 07:52:33;;;;;;;32.13;5.55;;;;;;;25.27;62.45;99993.59;4480099;32;34562;-75
2022/06/28 07:54:58;;;;;;;42.58;7.15;;;;;;;25.43;62.92;100030.78;4485333;32;34281;-76
2022/06/28 07:57:44;;;;;;;27.60;5.07;;;;;;;25.47;62.64;100034.66;4483431;32;34554;-76
2022/06/28 08:00:33;;;;;;;59.88;9.50;;;;;;;25.22;61.72;100041.41;4484179;32;34360;-76
2022/06/28 08:03:21;;;;;;;75.75;10.38;;;;;;;25.43;60.86;100027.13;4485379;32;34178;-76
2022/06/28 08:06:03;;;;;;;26.98;5.32;;;;;;;25.56;60.18;100026.41;4484429;32;33327;-77
2022/06/28 08:08:49;;;;;;;69.55;10.55;;;;;;;25.50;60.55;100021.97;4471815;32;33915;-77
2022/06/28 08:11:39;;;;;;;66.37;9.70;;;;;;;25.51;60.90;100020.84;4485411;32;34333;-76
2022/06/28 08:14:28;;;;;;;62.33;10.18;;;;;;;25.62;60.80;100022.38;4484227;32;33972;-76
2022/06/28 08:17:11;;;;;;;46.30;7.40;;;;;;;25.66;60.84;100020.69;4485392;32;33282;-76
2022/06/28 08:20:01;;;;;;;57.35;7.85;;;;;;;25.66;60.91;100009.44;4485250;32;33772;-76
2022/06/28 08:22:56;;;;;;;37.25;5.90;;;;;;;25.71;60.56;100003.75;4485150;32;34688;-76
2022/06/28 08:25:41;;;;;;;51.70;8.18;;;;;;;25.56;61.50;100004.75;4484974;32;34004;-78
2022/06/28 08:28:38;;;;;;;60.55;13.05;;;;;;;25.68;61.21;100004.34;4484163;32;33323;-78
2022/06/28 08:31:35;;;;;;;33.00;6.90;;;;;;;25.67;61.10;100011.13;4471786;32;32372;-79
2022/06/28 08:34:37;;;;;;;17.30;5.43;;;;;;;25.61;61.45;100015.09;4483137;32;34580;-78
2022/06/28 08:37:38;;;;;;;22.25;4.60;;;;;;;25.88;60.24;100022.94;4483367;32;34130;-78
2022/06/28 08:40:31;;;;;;;36.00;6.93;;;;;;;25.89;60.13;100035.84;4468827;32;33075;-80
2022/06/28 08:43:31;;;;;;;25.92;5.22;;;;;;;25.84;60.38;100027.50;4478342;32;33782;-80
2022/06/28 08:46:23;;;;;;;20.05;5.03;;;;;;;25.96;59.96;100036.31;4463697;32;34539;-80
2022/06/28 08:49:41;;;;;;;53.42;8.07;;;;;;;26.00;60.04;100036.56;4475250;32;34007;-79
2022/06/28 08:52:34;;;;;;;65.18;9.15;;;;;;;25.70;60.48;100033.00;4472191;32;32035;-77
2022/06/28 08:55:25;;;;;;;6.72;3.22;;;;;;;25.99;59.35;100044.16;4478670;32;34017;-77
2022/06/28 08:58:23;;;;;;;31.50;5.68;;;;;;;26.25;60.67;100047.41;4475405;32;34424;-77
2022/06/28 09:01:14;;;;;;;11.23;4.03;;;;;;;26.40;60.72;100047.22;4462081;32;32553;-78
2022/06/28 09:04:05;;;;;;;9.25;2.95;;;;;;;26.48;59.49;100048.50;4468785;32;32231;-78
2022/06/28 09:07:01;;;;;;;8.13;2.45;;;;;;;26.67;59.83;100056.91;4465348;32;32462;-77
2022/06/28 09:09:55;;;;;;;13.82;2.70;;;;;;;26.81;59.07;100057.81;4481611;32;35259;-80
2022/06/28 09:13:07;;;;;;;7.37;2.30;;;;;;;26.85;58.74;100067.31;4465839;32;34097;-78
2022/06/28 09:16:11;;;;;;;13.50;2.62;;;;;;;27.00;58.42;100067.09;4477659;32;33636;-78
2022/06/28 09:19:13;;;;;;;22.13;3.12;;;;;;;26.74;55.69;100069.47;4473706;32;32243;-78
2022/06/28 09:22:10;;;;;;;8.10;2.45;;;;;;;27.00;56.26;100061.44;4471701;32;33509;-79
2022/06/28 09:24:59;;;;;;;7.32;2.28;;;;;;;27.01;57.47;100065.09;4472322;32;34666;-79
2022/06/28 09:27:55;;;;;;;8.07;2.97;;;;;;;27.15;57.26;100069.62;4478425;32;34221;-79
2022/06/28 09:30:49;;;;;;;7.60;2.33;;;;;;;27.18;57.30;100060.56;4476434;32;34649;-80
2022/06/28 09:33:44;;;;;;;8.77;2.62;;;;;;;27.47;57.55;100065.91;4465485;32;36267;-81
2022/06/28 09:36:28;;;;;;;10.23;2.70;;;;;;;27.92;56.24;100063.31;4475624;32;33433;-79
2022/06/28 09:38:56;;;;;;;9.65;3.33;;;;;;;27.99;56.79;100060.03;4462296;32;32694;-80
2022/06/28 09:41:26;;;;;;;8.07;3.42;;;;;;;28.01;56.22;100058.56;4482283;32;33622;-79
2022/06/28 09:43:56;;;;;;;11.88;3.87;;;;;;;28.29;55.62;100067.87;4458960;32;33000;-81
2022/06/28 09:46:32;;;;;;;26.15;7.50;;;;;;;28.45;55.59;100072.00;4469680;32;33961;-79
2022/06/28 09:49:02;;;;;;;7.50;3.50;;;;;;;28.62;53.44;100074.13;4475337;32;34190;-79
2022/06/28 09:51:33;;;;;;;11.00;3.92;;;;;;;28.42;51.78;100071.81;4486312;32;33853;-80
2022/06/28 09:54:08;;;;;;;7.78;3.83;;;;;;;28.83;51.46;100071.66;4459765;32;34091;-79
2022/06/28 09:56:53;;;;;;;14.05;4.43;;;;;;;29.09;53.42;100078.34;4473104;32;34023;-81
2022/06/28 09:59:25;;;;;;;9.40;3.58;;;;;;;29.32;51.81;100064.97;4471765;32;33783;-79
2022/06/28 10:01:55;;;;;;;16.23;5.82;;;;;;;29.50;52.53;100066.75;4471268;32;33842;-80
2022/06/28 10:04:26;;;;;;;6.55;3.67;;;;;;;29.34;50.52;100068.31;4458831;32;35247;-78
2022/06/28 10:06:55;;;;;;;6.97;3.25;;;;;;;29.62;51.65;100068.97;4470945;32;33527;-80
2022/06/28 10:09:23;;;;;;;8.57;4.65;;;;;;;30.09;51.78;100069.31;4456752;32;33780;-78
2022/06/28 10:17:34;;;;;;;21.33;8.30;;;;;;;30.67;50.62;100070.87;4459477;32;33285;-80
2022/06/28 10:20:05;;;;;;;7.87;3.10;;;;;;;30.68;49.55;100067.72;4458436;32;34049;-75
2022/06/28 10:22:32;;;;;;;7.87;3.35;;;;;;;30.44;47.87;100070.19;4472752;32;32382;-77
2022/06/28 10:25:02;;;;;;;10.30;4.10;;;;;;;30.98;47.44;100063.03;4472772;32;34614;-75
2022/06/28 10:27:30;;;;;;;17.00;5.45;;;;;;;31.50;45.23;100054.37;4472616;32;34493;-76
2022/06/28 10:29:58;;;;;;;8.65;4.12;;;;;;;31.57;45.92;100053.84;4460073;32;32949;-78
2022/06/28 10:32:49;;;;;;;10.57;4.50;;;;;;;31.70;45.23;100050.81;4486300;32;33989;-77
2022/06/28 10:35:28;;;;;;;11.65;4.30;;;;;;;31.97;45.98;100051.50;4485454;32;34649;-77
2022/06/28 10:38:07;;;;;;;7.03;3.55;;;;;;;32.23;44.01;100049.34;4472890;32;34330;-77
2022/06/28 10:40:47;;;;;;;7.70;3.00;;;;;;;32.58;45.04;100049.06;4486355;32;33259;-78
2022/06/28 10:43:38;;;;;;;11.52;3.55;;;;;;;32.59;41.83;100045.03;4459225;32;33523;-78
2022/06/28 10:46:10;;;;;;;16.83;5.05;;;;;;;32.77;42.22;100040.91;4471340;32;33969;-78
2022/06/28 10:48:50;;;;;;;12.48;4.28;;;;;;;32.90;43.34;100045.47;4458201;32;32489;-77
2022/06/28 10:51:27;;;;;;;87.65;23.25;;;;;;;33.05;41.92;100044.81;4472438;32;34152;-78
2022/06/28 10:54:01;;;;;;;11.75;3.95;;;;;;;32.77;41.43;100042.91;4456365;32;32676;-78
2022/06/28 10:56:29;;;;;;;74.70;18.67;;;;;;;33.16;38.85;100038.66;4458017;32;34456;-78
2022/06/28 10:59:04;;;;;;;5.65;3.22;;;;;;;33.35;40.63;100030.44;4472040;32;33966;-79
2022/06/28 11:01:57;;;;;;;;;;;;;;;32.74;38.76;100027.34;4458429;32;33395;-78
2022/06/28 11:05:23;;;;;;;21.80;6.72;;;;;;;33.06;38.75;100026.56;4470704;32;33612;-80
2022/06/28 11:08:36;;;;;;;73.43;10.82;;;;;;;33.54;39.48;100030.69;4458645;32;34413;-79
2022/06/28 11:11:26;;;;;;;730.92;106.70;;;;;;;33.97;38.20;100030.09;4458443;32;34304;-77
2022/06/28 11:14:35;;;;;;;158.35;23.60;;;;;;;34.00;37.52;100025.72;4471772;32;33536;-77
2022/06/28 11:17:45;;;;;;;18.10;4.95;;;;;;;34.12;38.03;100034.25;4453487;32;33997;-77
2022/06/28 11:20:44;;;;;;;28.55;6.43;;;;;;;34.10;38.16;100035.78;4463614;32;34018;-77
2022/06/28 11:23:46;;;;;;;13.70;3.97;;;;;;;34.44;36.74;100017.34;4485780;32;34839;-77
2022/06/28 11:29:41;;;;;;;24.70;5.12;;;;;;;34.72;34.99;100023.06;4471340;32;33330;-76
2022/06/28 11:32:33;;;;;;;26.92;5.32;;;;;;;34.64;35.32;100017.13;4470508;32;33944;-76
2022/06/28 11:35:30;;;;;;;12.77;4.20;;;;;;;34.53;35.73;100021.69;4471488;32;34693;-77
2022/06/28 11:38:19;;;;;;;12.25;3.97;;;;;;;34.69;36.57;100016.87;4459328;32;33855;-76
2022/06/28 11:41:11;;;;;;;8.98;3.80;;;;;;;34.99;35.52;100017.38;4485675;32;33878;-77
2022/06/28 11:44:15;;;;;;;32.92;7.12;;;;;;;34.43;35.67;100010.81;4458923;32;34718;-77
2022/06/28 11:47:02;;;;;;;93.60;14.32;;;;;;;34.99;36.66;100002.28;4472269;32;34643;-76
2022/06/28 11:50:12;;;;;;;162.60;19.85;;;;;;;35.16;37.31;99996.19;4465761;32;237090;-77
2022/06/28 11:53:04;;;;;;;39.70;7.57;;;;;;;35.32;37.37;99993.41;4472377;32;33781;-74
2022/06/28 11:56:04;;;;;;;12.25;4.57;;;;;;;35.36;36.30;99991.47;4459252;32;32817;-76
2022/06/28 11:58:53;;;;;;;21.80;5.90;;;;;;;35.00;35.60;99999.06;4485391;32;34303;-77
2022/06/28 12:01:47;;;;;;;27.80;6.00;;;;;;;35.37;35.61;99976.00;4459781;32;32851;-77
2022/06/28 12:04:46;;;;;;;8.48;4.10;;;;;;;35.44;35.50;99978.19;4472782;32;33507;-76
2022/06/28 12:07:49;;;;;;;11.75;4.53;;;;;;;35.44;35.04;99973.31;4473142;32;34338;-76
2022/06/28 12:10:43;;;;;;;8.77;3.83;;;;;;;35.50;34.79;99979.59;4485464;32;33925;-76
2022/06/28 12:13:33;;;;;;;9.27;4.45;;;;;;;35.55;34.59;99976.44;4485230;32;33135;-76
2022/06/28 12:16:47;;;;;;;8.90;3.97;;;;;;;35.57;35.33;99962.63;4471858;32;33757;-75
2022/06/28 12:19:46;;;;;;;9.75;3.65;;;;;;;35.56;34.10;99956.09;4481258;32;34633;-76
2022/06/28 12:22:46;;;;;;;9.52;3.60;;;;;;;35.60;34.13;99961.91;4484648;32;34876;-76
2022/06/28 12:25:35;;;;;;;10.02;3.95;;;;;;;35.92;33.40;99948.37;4469897;32;32650;-76
2022/06/28 12:28:31;;;;;;;13.30;4.18;;;;;;;35.78;34.58;99945.16;4472456;32;32827;-76
2022/06/28 12:31:43;;;;;;;25.40;6.53;;;;;;;36.01;35.41;99953.88;4485083;32;33548;-76
2022/06/28 12:34:30;;;;;;;12.68;4.20;;;;;;;35.83;35.91;99947.75;4472328;32;34571;-76
2022/06/28 12:37:25;;;;;;;7.85;4.22;;;;;;;35.98;35.30;99944.88;4484920;32;33557;-76
2022/06/28 12:40:12;;;;;;;12.27;4.18;;;;;;;35.99;35.03;99945.69;4484974;32;34050;-78